Crane Naval Depot, Indiana
Current Conditions -  °F | °C
As of 10:55 AM on Friday 28 Nov 2014 (Local Time) from KDCY Reporting Station
Clear Clear  
Wind Chill: 24°   Ceiling: Unl
Heat Index: 33°   Visibility: 10mi
Dew Point: 28°   Wind: 13mph
Humidity: 81%   Direction: 170°S
Pressure: 30.31"   Gusts: 16mph
Location:  38.8381°N, 86.8142°W
Report Text: KDCY 281655Z AUTO 17011G14KT 10SM CLR 01/M02 A3031 RMK AO2 T00081022
Loading
Personal Weather Stations






























Interactive Weather Map New forecast layout! Learn more

10-Day Weather Forecast

Advertisements
Track Severe Weather on mobile